sensor_id;sensor_type;location;lat;lon;timestamp;temperature;humidity
57753;DHT22;43583;53.132;6.574;2023-07-08T00:00:22;16.20;99.90
57753;DHT22;43583;53.132;6.574;2023-07-08T00:02:48;16.20;99.90
57753;DHT22;43583;53.132;6.574;2023-07-08T00:05:16;16.20;99.90
57753;DHT22;43583;53.132;6.574;2023-07-08T00:07:42;16.20;99.90
57753;DHT22;43583;53.132;6.574;2023-07-08T00:10:21;16.20;99.90
57753;DHT22;43583;53.132;6.574;2023-07-08T00:12:52;16.30;99.90
57753;DHT22;43583;53.132;6.574;2023-07-08T00:15:21;16.20;99.90
57753;DHT22;43583;53.132;6.574;2023-07-08T00:17:47;16.20;99.90
57753;DHT22;43583;53.132;6.574;2023-07-08T00:20:23;16.20;99.90
57753;DHT22;43583;53.132;6.574;2023-07-08T00:22:54;16.30;99.90
57753;DHT22;43583;53.132;6.574;2023-07-08T00:25:20;16.20;99.90
57753;DHT22;43583;53.132;6.574;2023-07-08T00:27:46;16.20;99.90
57753;DHT22;43583;53.132;6.574;2023-07-08T00:30:22;16.20;99.90
57753;DHT22;43583;53.132;6.574;2023-07-08T00:32:48;16.20;99.90
57753;DHT22;43583;53.132;6.574;2023-07-08T00:37:52;16.20;99.90
57753;DHT22;43583;53.132;6.574;2023-07-08T00:40:20;16.30;99.90
57753;DHT22;43583;53.132;6.574;2023-07-08T00:42:47;16.30;99.90
57753;DHT22;43583;53.132;6.574;2023-07-08T00:45:29;16.20;99.90
57753;DHT22;43583;53.132;6.574;2023-07-08T00:47:59;16.20;99.90
57753;DHT22;43583;53.132;6.574;2023-07-08T00:50:27;16.20;99.90
57753;DHT22;43583;53.132;6.574;2023-07-08T00:53:29;16.20;99.90
57753;DHT22;43583;53.132;6.574;2023-07-08T00:55:59;16.20;99.90
57753;DHT22;43583;53.132;6.574;2023-07-08T00:58:30;16.20;99.90
57753;DHT22;43583;53.132;6.574;2023-07-08T01:00:58;16.20;99.90
57753;DHT22;43583;53.132;6.574;2023-07-08T01:03:24;16.20;99.90
57753;DHT22;43583;53.132;6.574;2023-07-08T01:05:53;16.20;99.90
57753;DHT22;43583;53.132;6.574;2023-07-08T01:08:22;16.20;99.90
57753;DHT22;43583;53.132;6.574;2023-07-08T01:10:59;16.10;99.90
57753;DHT22;43583;53.132;6.574;2023-07-08T01:13:28;16.20;99.90
57753;DHT22;43583;53.132;6.574;2023-07-08T01:15:58;16.20;99.90
57753;DHT22;43583;53.132;6.574;2023-07-08T01:18:24;16.10;99.90
57753;DHT22;43583;53.132;6.574;2023-07-08T01:20:51;16.10;99.90
57753;DHT22;43583;53.132;6.574;2023-07-08T01:23:20;16.10;99.90
57753;DHT22;43583;53.132;6.574;2023-07-08T01:25:47;16.20;99.90
57753;DHT22;43583;53.132;6.574;2023-07-08T01:28:13;16.20;99.90
57753;DHT22;43583;53.132;6.574;2023-07-08T01:30:41;16.10;99.90
57753;DHT22;43583;53.132;6.574;2023-07-08T01:33:16;16.10;99.90
57753;DHT22;43583;53.132;6.574;2023-07-08T01:35:43;16.10;99.90
57753;DHT22;43583;53.132;6.574;2023-07-08T01:38:11;16.10;99.90
57753;DHT22;43583;53.132;6.574;2023-07-08T01:40:48;16.10;99.90
57753;DHT22;43583;53.132;6.574;2023-07-08T01:43:14;16.10;99.90
57753;DHT22;43583;53.132;6.574;2023-07-08T01:45:41;16.00;99.90
57753;DHT22;43583;53.132;6.574;2023-07-08T01:48:15;16.10;99.90
57753;DHT22;43583;53.132;6.574;2023-07-08T01:51:05;16.10;99.90
57753;DHT22;43583;53.132;6.574;2023-07-08T01:53:33;16.10;99.90
57753;DHT22;43583;53.132;6.574;2023-07-08T01:55:59;16.00;99.90
57753;DHT22;43583;53.132;6.574;2023-07-08T01:58:25;16.00;99.90
57753;DHT22;43583;53.132;6.574;2023-07-08T02:00:51;16.00;99.90
57753;DHT22;43583;53.132;6.574;2023-07-08T02:03:16;15.90;99.90
57753;DHT22;43583;53.132;6.574;2023-07-08T02:05:42;15.90;99.90
57753;DHT22;43583;53.132;6.574;2023-07-08T02:08:08;15.90;99.90
57753;DHT22;43583;53.132;6.574;2023-07-08T02:10:33;15.80;99.90
57753;DHT22;43583;53.132;6.574;2023-07-08T02:12:59;15.80;99.90
57753;DHT22;43583;53.132;6.574;2023-07-08T02:15:26;15.80;99.90
57753;DHT22;43583;53.132;6.574;2023-07-08T02:17:52;15.70;99.90
57753;DHT22;43583;53.132;6.574;2023-07-08T02:20:18;15.70;99.90
57753;DHT22;43583;53.132;6.574;2023-07-08T02:22:43;15.70;99.90
57753;DHT22;43583;53.132;6.574;2023-07-08T02:25:09;15.70;99.90
57753;DHT22;43583;53.132;6.574;2023-07-08T02:27:35;15.70;99.90
57753;DHT22;43583;53.132;6.574;2023-07-08T02:30:01;15.70;99.90
57753;DHT22;43583;53.132;6.574;2023-07-08T02:32:28;15.70;99.90
57753;DHT22;43583;53.132;6.574;2023-07-08T02:34:53;15.60;99.90
57753;DHT22;43583;53.132;6.574;2023-07-08T02:37:19;15.60;99.90
57753;DHT22;43583;53.132;6.574;2023-07-08T02:39:44;15.60;99.90
57753;DHT22;43583;53.132;6.574;2023-07-08T02:42:10;15.50;99.90
57753;DHT22;43583;53.132;6.574;2023-07-08T02:44:35;15.50;99.90
57753;DHT22;43583;53.132;6.574;2023-07-08T02:47:01;15.40;99.90
57753;DHT22;43583;53.132;6.574;2023-07-08T02:49:27;15.40;99.90
57753;DHT22;43583;53.132;6.574;2023-07-08T02:51:52;15.30;99.90
57753;DHT22;43583;53.132;6.574;2023-07-08T02:54:18;15.20;99.90
57753;DHT22;43583;53.132;6.574;2023-07-08T02:56:43;15.20;99.90
57753;DHT22;43583;53.132;6.574;2023-07-08T02:59:09;15.10;99.90
57753;DHT22;43583;53.132;6.574;2023-07-08T03:01:34;15.00;99.90
57753;DHT22;43583;53.132;6.574;2023-07-08T03:04:10;15.00;99.90
57753;DHT22;43583;53.132;6.574;2023-07-08T03:06:42;15.00;99.90
57753;DHT22;43583;53.132;6.574;2023-07-08T03:09:09;14.90;99.90
57753;DHT22;43583;53.132;6.574;2023-07-08T03:11:35;14.90;99.90
57753;DHT22;43583;53.132;6.574;2023-07-08T03:14:01;14.80;99.90
57753;DHT22;43583;53.132;6.574;2023-07-08T03:16:27;14.80;99.90
57753;DHT22;43583;53.132;6.574;2023-07-08T03:18:53;14.80;99.90
57753;DHT22;43583;53.132;6.574;2023-07-08T03:21:19;14.80;99.90
57753;DHT22;43583;53.132;6.574;2023-07-08T03:23:45;14.80;99.90
57753;DHT22;43583;53.132;6.574;2023-07-08T03:26:17;14.80;99.90
57753;DHT22;43583;53.132;6.574;2023-07-08T03:28:43;14.80;99.90
57753;DHT22;43583;53.132;6.574;2023-07-08T03:31:10;14.80;99.90
57753;DHT22;43583;53.132;6.574;2023-07-08T03:33:36;14.80;99.90
57753;DHT22;43583;53.132;6.574;2023-07-08T03:36:03;14.80;99.90
57753;DHT22;43583;53.132;6.574;2023-07-08T03:38:29;14.80;99.90
57753;DHT22;43583;53.132;6.574;2023-07-08T03:40:54;14.80;99.90
57753;DHT22;43583;53.132;6.574;2023-07-08T03:43:20;14.80;99.90
57753;DHT22;43583;53.132;6.574;2023-07-08T03:45:46;14.80;99.90
57753;DHT22;43583;53.132;6.574;2023-07-08T03:48:12;14.80;99.90
57753;DHT22;43583;53.132;6.574;2023-07-08T03:50:38;14.90;99.90
57753;DHT22;43583;53.132;6.574;2023-07-08T03:53:04;14.80;99.90
57753;DHT22;43583;53.132;6.574;2023-07-08T03:55:30;14.90;99.90
57753;DHT22;43583;53.132;6.574;2023-07-08T03:57:55;15.30;99.90
57753;DHT22;43583;53.132;6.574;2023-07-08T04:00:21;15.60;99.90
57753;DHT22;43583;53.132;6.574;2023-07-08T04:02:47;16.00;99.90
57753;DHT22;43583;53.132;6.574;2023-07-08T04:05:15;16.10;99.90
57753;DHT22;43583;53.132;6.574;2023-07-08T04:07:41;16.10;99.90
57753;DHT22;43583;53.132;6.574;2023-07-08T04:10:08;16.20;99.90
57753;DHT22;43583;53.132;6.574;2023-07-08T04:12:33;16.30;99.90
57753;DHT22;43583;53.132;6.574;2023-07-08T04:14:59;16.30;99.90
57753;DHT22;43583;53.132;6.574;2023-07-08T04:17:25;16.50;99.90
57753;DHT22;43583;53.132;6.574;2023-07-08T04:19:50;16.80;99.90
57753;DHT22;43583;53.132;6.574;2023-07-08T04:22:16;17.20;99.90
57753;DHT22;43583;53.132;6.574;2023-07-08T04:24:42;17.30;99.90
57753;DHT22;43583;53.132;6.574;2023-07-08T04:27:13;17.20;99.90
57753;DHT22;43583;53.132;6.574;2023-07-08T04:29:40;17.20;99.90
57753;DHT22;43583;53.132;6.574;2023-07-08T04:32:06;17.40;99.90
57753;DHT22;43583;53.132;6.574;2023-07-08T04:34:31;17.70;99.90
57753;DHT22;43583;53.132;6.574;2023-07-08T04:36:57;18.00;99.90
57753;DHT22;43583;53.132;6.574;2023-07-08T04:39:22;18.10;99.90
57753;DHT22;43583;53.132;6.574;2023-07-08T04:41:48;18.10;99.90
57753;DHT22;43583;53.132;6.574;2023-07-08T04:44:14;18.00;99.90
57753;DHT22;43583;53.132;6.574;2023-07-08T04:46:57;17.80;99.90
57753;DHT22;43583;53.132;6.574;2023-07-08T04:49:24;17.90;99.90
57753;DHT22;43583;53.132;6.574;2023-07-08T04:51:51;18.00;99.90
57753;DHT22;43583;53.132;6.574;2023-07-08T04:54:17;18.30;99.90
57753;DHT22;43583;53.132;6.574;2023-07-08T04:56:45;18.80;99.90
57753;DHT22;43583;53.132;6.574;2023-07-08T04:59:13;19.50;99.90
57753;DHT22;43583;53.132;6.574;2023-07-08T05:01:39;20.10;99.90
57753;DHT22;43583;53.132;6.574;2023-07-08T05:04:05;20.70;99.90
57753;DHT22;43583;53.132;6.574;2023-07-08T05:06:32;21.20;99.90
57753;DHT22;43583;53.132;6.574;2023-07-08T05:08:58;21.60;99.90
57753;DHT22;43583;53.132;6.574;2023-07-08T05:11:24;22.00;99.90
57753;DHT22;43583;53.132;6.574;2023-07-08T05:13:50;22.40;99.90
57753;DHT22;43583;53.132;6.574;2023-07-08T05:16:16;22.70;99.90
57753;DHT22;43583;53.132;6.574;2023-07-08T05:18:42;22.80;99.90
57753;DHT22;43583;53.132;6.574;2023-07-08T05:21:09;23.10;99.90
57753;DHT22;43583;53.132;6.574;2023-07-08T05:23:34;23.40;99.90
57753;DHT22;43583;53.132;6.574;2023-07-08T05:26:01;23.60;99.90
57753;DHT22;43583;53.132;6.574;2023-07-08T05:28:27;23.80;99.90
57753;DHT22;43583;53.132;6.574;2023-07-08T05:30:54;24.20;99.90
57753;DHT22;43583;53.132;6.574;2023-07-08T05:33:23;24.40;99.90
57753;DHT22;43583;53.132;6.574;2023-07-08T05:35:50;24.70;99.90
57753;DHT22;43583;53.132;6.574;2023-07-08T05:38:16;24.80;99.90
57753;DHT22;43583;53.132;6.574;2023-07-08T05:40:42;25.10;99.90
57753;DHT22;43583;53.132;6.574;2023-07-08T05:43:08;25.20;99.20
57753;DHT22;43583;53.132;6.574;2023-07-08T05:45:33;25.40;98.80
57753;DHT22;43583;53.132;6.574;2023-07-08T05:48:01;25.50;98.20
57753;DHT22;43583;53.132;6.574;2023-07-08T05:50:27;25.60;97.70
57753;DHT22;43583;53.132;6.574;2023-07-08T05:52:52;25.90;97.40
57753;DHT22;43583;53.132;6.574;2023-07-08T05:55:18;26.30;96.80
57753;DHT22;43583;53.132;6.574;2023-07-08T05:57:44;26.70;96.00
57753;DHT22;43583;53.132;6.574;2023-07-08T06:00:10;26.70;95.00
57753;DHT22;43583;53.132;6.574;2023-07-08T06:02:36;27.00;94.70
57753;DHT22;43583;53.132;6.574;2023-07-08T06:05:02;27.00;93.80
57753;DHT22;43583;53.132;6.574;2023-07-08T06:07:27;27.10;93.40
57753;DHT22;43583;53.132;6.574;2023-07-08T06:09:53;27.00;93.00
57753;DHT22;43583;53.132;6.574;2023-07-08T06:12:21;27.20;93.10
57753;DHT22;43583;53.132;6.574;2023-07-08T06:14:47;27.50;93.10
57753;DHT22;43583;53.132;6.574;2023-07-08T06:17:13;27.50;92.40
57753;DHT22;43583;53.132;6.574;2023-07-08T06:19:38;27.40;91.80
57753;DHT22;43583;53.132;6.574;2023-07-08T06:22:04;27.20;91.40
57753;DHT22;43583;53.132;6.574;2023-07-08T06:24:30;27.30;91.30
57753;DHT22;43583;53.132;6.574;2023-07-08T06:26:55;27.40;90.80
57753;DHT22;43583;53.132;6.574;2023-07-08T06:29:21;27.60;90.70
57753;DHT22;43583;53.132;6.574;2023-07-08T06:31:47;27.90;89.90
57753;DHT22;43583;53.132;6.574;2023-07-08T06:34:12;28.00;88.90
57753;DHT22;43583;53.132;6.574;2023-07-08T06:36:38;28.10;88.60
57753;DHT22;43583;53.132;6.574;2023-07-08T06:39:03;28.50;89.00
57753;DHT22;43583;53.132;6.574;2023-07-08T06:41:32;28.90;87.50
57753;DHT22;43583;53.132;6.574;2023-07-08T06:43:58;29.10;85.50
57753;DHT22;43583;53.132;6.574;2023-07-08T06:46:24;29.10;84.70
57753;DHT22;43583;53.132;6.574;2023-07-08T06:48:49;29.30;84.30
57753;DHT22;43583;53.132;6.574;2023-07-08T06:51:15;29.40;84.40
57753;DHT22;43583;53.132;6.574;2023-07-08T06:53:41;29.60;84.00
57753;DHT22;43583;53.132;6.574;2023-07-08T06:56:06;29.70;84.10
57753;DHT22;43583;53.132;6.574;2023-07-08T06:58:33;29.90;83.40
57753;DHT22;43583;53.132;6.574;2023-07-08T07:00:59;30.10;81.90
57753;DHT22;43583;53.132;6.574;2023-07-08T07:03:24;30.20;80.90
57753;DHT22;43583;53.132;6.574;2023-07-08T07:05:50;30.20;80.80
57753;DHT22;43583;53.132;6.574;2023-07-08T07:08:16;30.20;80.20
57753;DHT22;43583;53.132;6.574;2023-07-08T07:10:42;30.00;78.40
57753;DHT22;43583;53.132;6.574;2023-07-08T07:13:08;30.10;77.90
57753;DHT22;43583;53.132;6.574;2023-07-08T07:15:33;30.20;77.60
57753;DHT22;43583;53.132;6.574;2023-07-08T07:17:59;30.50;78.20
57753;DHT22;43583;53.132;6.574;2023-07-08T07:20:25;30.60;76.70
57753;DHT22;43583;53.132;6.574;2023-07-08T07:22:50;30.60;75.30
57753;DHT22;43583;53.132;6.574;2023-07-08T07:25:17;30.30;74.00
57753;DHT22;43583;53.132;6.574;2023-07-08T07:27:42;30.10;73.60
57753;DHT22;43583;53.132;6.574;2023-07-08T07:30:08;30.10;74.80
57753;DHT22;43583;53.132;6.574;2023-07-08T07:32:38;30.20;74.40
57753;DHT22;43583;53.132;6.574;2023-07-08T07:35:04;30.30;74.00
57753;DHT22;43583;53.132;6.574;2023-07-08T07:37:30;30.30;73.40
57753;DHT22;43583;53.132;6.574;2023-07-08T07:39:56;30.20;73.50
57753;DHT22;43583;53.132;6.574;2023-07-08T07:42:21;30.50;73.60
57753;DHT22;43583;53.132;6.574;2023-07-08T07:44:47;30.60;73.40
57753;DHT22;43583;53.132;6.574;2023-07-08T07:47:13;30.60;72.70
57753;DHT22;43583;53.132;6.574;2023-07-08T07:49:39;30.70;72.50
57753;DHT22;43583;53.132;6.574;2023-07-08T07:52:05;30.80;73.00
57753;DHT22;43583;53.132;6.574;2023-07-08T07:54:31;31.00;73.30
57753;DHT22;43583;53.132;6.574;2023-07-08T07:56:56;30.90;71.70
57753;DHT22;43583;53.132;6.574;2023-07-08T07:59:22;30.50;71.60
57753;DHT22;43583;53.132;6.574;2023-07-08T08:01:48;30.60;72.10
57753;DHT22;43583;53.132;6.574;2023-07-08T08:04:13;30.80;72.10
57753;DHT22;43583;53.132;6.574;2023-07-08T08:06:39;30.70;71.00
57753;DHT22;43583;53.132;6.574;2023-07-08T08:09:05;30.70;71.60
57753;DHT22;43583;53.132;6.574;2023-07-08T08:11:31;30.60;71.30
57753;DHT22;43583;53.132;6.574;2023-07-08T08:13:57;30.60;72.00
57753;DHT22;43583;53.132;6.574;2023-07-08T08:16:22;30.60;71.50
57753;DHT22;43583;53.132;6.574;2023-07-08T08:18:48;30.60;72.10
57753;DHT22;43583;53.132;6.574;2023-07-08T08:21:14;30.70;71.90
57753;DHT22;43583;53.132;6.574;2023-07-08T08:23:39;30.80;70.80
57753;DHT22;43583;53.132;6.574;2023-07-08T08:26:05;30.50;70.60
57753;DHT22;43583;53.132;6.574;2023-07-08T08:28:31;30.50;71.40
57753;DHT22;43583;53.132;6.574;2023-07-08T08:30:58;30.50;71.00
57753;DHT22;43583;53.132;6.574;2023-07-08T08:33:24;30.60;73.10
57753;DHT22;43583;53.132;6.574;2023-07-08T08:35:50;30.90;72.90
57753;DHT22;43583;53.132;6.574;2023-07-08T08:38:15;31.10;72.40
57753;DHT22;43583;53.132;6.574;2023-07-08T08:40:43;31.40;71.90
57753;DHT22;43583;53.132;6.574;2023-07-08T08:43:22;31.40;71.80
57753;DHT22;43583;53.132;6.574;2023-07-08T08:46:16;31.10;71.30
57753;DHT22;43583;53.132;6.574;2023-07-08T09:03:16;30.70;72.60
57753;DHT22;43583;53.132;6.574;2023-07-08T09:20:39;30.70;75.20
57753;DHT22;43583;53.132;6.574;2023-07-08T09:26:30;30.60;74.20
57753;DHT22;43583;53.132;6.574;2023-07-08T09:29:14;30.20;73.30
57753;DHT22;43583;53.132;6.574;2023-07-08T09:32:17;30.20;74.30
57753;DHT22;43583;53.132;6.574;2023-07-08T09:38:13;29.80;73.70
57753;DHT22;43583;53.132;6.574;2023-07-08T09:40:42;29.40;74.40
57753;DHT22;43583;53.132;6.574;2023-07-08T09:43:24;29.40;76.30
57753;DHT22;43583;53.132;6.574;2023-07-08T09:45:51;29.20;76.10
57753;DHT22;43583;53.132;6.574;2023-07-08T09:48:24;29.10;77.10
57753;DHT22;43583;53.132;6.574;2023-07-08T09:50:56;29.10;77.60
57753;DHT22;43583;53.132;6.574;2023-07-08T09:53:24;29.00;76.30
57753;DHT22;43583;53.132;6.574;2023-07-08T09:55:54;29.00;78.00
57753;DHT22;43583;53.132;6.574;2023-07-08T09:58:33;29.10;77.70
57753;DHT22;43583;53.132;6.574;2023-07-08T10:01:17;29.10;76.70
57753;DHT22;43583;53.132;6.574;2023-07-08T10:04:05;29.10;78.50
57753;DHT22;43583;53.132;6.574;2023-07-08T10:13:26;29.20;81.70
57753;DHT22;43583;53.132;6.574;2023-07-08T11:05:28;29.90;78.50
57753;DHT22;43583;53.132;6.574;2023-07-08T11:08:01;30.20;78.50
57753;DHT22;43583;53.132;6.574;2023-07-08T11:13:12;30.50;78.80
57753;DHT22;43583;53.132;6.574;2023-07-08T11:15:56;30.60;77.90
57753;DHT22;43583;53.132;6.574;2023-07-08T11:21:32;30.70;75.90
57753;DHT22;43583;53.132;6.574;2023-07-08T11:29:45;30.60;74.90
57753;DHT22;43583;53.132;6.574;2023-07-08T11:32:15;30.70;76.40
57753;DHT22;43583;53.132;6.574;2023-07-08T11:34:44;30.90;77.20
57753;DHT22;43583;53.132;6.574;2023-07-08T11:37:12;30.90;76.40
57753;DHT22;43583;53.132;6.574;2023-07-08T11:39:43;30.80;76.60
57753;DHT22;43583;53.132;6.574;2023-07-08T11:42:37;30.80;75.70
57753;DHT22;43583;53.132;6.574;2023-07-08T11:45:30;30.80;74.70
57753;DHT22;43583;53.132;6.574;2023-07-08T11:50:46;30.90;71.10
57753;DHT22;43583;53.132;6.574;2023-07-08T11:57:41;31.00;74.00
57753;DHT22;43583;53.132;6.574;2023-07-08T12:03:41;30.70;73.30
57753;DHT22;43583;53.132;6.574;2023-07-08T12:13:21;30.70;71.40
57753;DHT22;43583;53.132;6.574;2023-07-08T12:15:49;30.80;71.50
57753;DHT22;43583;53.132;6.574;2023-07-08T12:18:19;30.90;71.10
57753;DHT22;43583;53.132;6.574;2023-07-08T12:20:58;30.80;72.20
57753;DHT22;43583;53.132;6.574;2023-07-08T12:28:04;31.00;70.90
57753;DHT22;43583;53.132;6.574;2023-07-08T12:30:32;31.00;72.30
57753;DHT22;43583;53.132;6.574;2023-07-08T12:33:00;31.10;72.30
57753;DHT22;43583;53.132;6.574;2023-07-08T12:35:29;31.10;71.60
57753;DHT22;43583;53.132;6.574;2023-07-08T12:37:59;31.10;69.60
57753;DHT22;43583;53.132;6.574;2023-07-08T12:40:27;31.20;68.60
57753;DHT22;43583;53.132;6.574;2023-07-08T12:42:55;31.30;70.00
57753;DHT22;43583;53.132;6.574;2023-07-08T12:45:22;31.30;70.30
57753;DHT22;43583;53.132;6.574;2023-07-08T12:47:49;31.30;70.30
57753;DHT22;43583;53.132;6.574;2023-07-08T12:50:15;31.30;71.50
57753;DHT22;43583;53.132;6.574;2023-07-08T12:52:43;31.40;72.00
57753;DHT22;43583;53.132;6.574;2023-07-08T12:55:10;31.40;71.10
57753;DHT22;43583;53.132;6.574;2023-07-08T12:57:37;31.30;71.40
57753;DHT22;43583;53.132;6.574;2023-07-08T13:00:04;31.40;70.50
57753;DHT22;43583;53.132;6.574;2023-07-08T13:02:31;31.40;71.20
57753;DHT22;43583;53.132;6.574;2023-07-08T13:05:01;31.50;72.10
57753;DHT22;43583;53.132;6.574;2023-07-08T13:10:00;31.80;72.50
57753;DHT22;43583;53.132;6.574;2023-07-08T13:12:27;31.80;71.80
57753;DHT22;43583;53.132;6.574;2023-07-08T13:14:55;31.70;71.10
57753;DHT22;43583;53.132;6.574;2023-07-08T13:17:23;31.70;70.90
57753;DHT22;43583;53.132;6.574;2023-07-08T13:19:49;31.80;70.40
57753;DHT22;43583;53.132;6.574;2023-07-08T13:22:20;31.80;71.20
57753;DHT22;43583;53.132;6.574;2023-07-08T13:24:47;32.00;70.30
57753;DHT22;43583;53.132;6.574;2023-07-08T13:27:23;31.90;69.30
57753;DHT22;43583;53.132;6.574;2023-07-08T13:29:56;31.90;68.30
57753;DHT22;43583;53.132;6.574;2023-07-08T13:32:31;31.90;69.10
57753;DHT22;43583;53.132;6.574;2023-07-08T13:34:57;31.90;69.20
57753;DHT22;43583;53.132;6.574;2023-07-08T13:37:22;31.90;68.10
57753;DHT22;43583;53.132;6.574;2023-07-08T13:39:52;31.90;67.50
57753;DHT22;43583;53.132;6.574;2023-07-08T13:42:18;31.80;66.00
57753;DHT22;43583;53.132;6.574;2023-07-08T13:44:47;31.80;66.30
57753;DHT22;43583;53.132;6.574;2023-07-08T13:47:22;31.80;65.80
57753;DHT22;43583;53.132;6.574;2023-07-08T13:49:53;31.80;65.90
57753;DHT22;43583;53.132;6.574;2023-07-08T13:52:21;31.90;68.20
57753;DHT22;43583;53.132;6.574;2023-07-08T13:54:58;31.90;67.50
57753;DHT22;43583;53.132;6.574;2023-07-08T13:57:36;32.00;66.90
57753;DHT22;43583;53.132;6.574;2023-07-08T14:00:03;32.00;69.50
57753;DHT22;43583;53.132;6.574;2023-07-08T14:02:31;32.10;69.10
57753;DHT22;43583;53.132;6.574;2023-07-08T14:04:58;32.20;68.10
57753;DHT22;43583;53.132;6.574;2023-07-08T14:07:28;32.20;69.30
57753;DHT22;43583;53.132;6.574;2023-07-08T14:09:53;32.30;65.90
57753;DHT22;43583;53.132;6.574;2023-07-08T14:12:20;32.20;64.00
57753;DHT22;43583;53.132;6.574;2023-07-08T14:14:46;32.30;62.20
57753;DHT22;43583;53.132;6.574;2023-07-08T14:17:26;32.30;61.30
57753;DHT22;43583;53.132;6.574;2023-07-08T14:19:52;32.20;61.60
57753;DHT22;43583;53.132;6.574;2023-07-08T14:22:29;32.20;62.00
57753;DHT22;43583;53.132;6.574;2023-07-08T14:24:56;32.20;63.10
57753;DHT22;43583;53.132;6.574;2023-07-08T14:27:23;32.20;63.70
57753;DHT22;43583;53.132;6.574;2023-07-08T14:29:50;32.20;63.00
57753;DHT22;43583;53.132;6.574;2023-07-08T14:32:20;32.10;62.10
57753;DHT22;43583;53.132;6.574;2023-07-08T14:34:52;32.10;62.80
57753;DHT22;43583;53.132;6.574;2023-07-08T14:37:19;32.00;61.50
57753;DHT22;43583;53.132;6.574;2023-07-08T14:39:45;32.10;62.30
57753;DHT22;43583;53.132;6.574;2023-07-08T14:42:12;32.10;63.20
57753;DHT22;43583;53.132;6.574;2023-07-08T14:44:39;32.10;62.60
57753;DHT22;43583;53.132;6.574;2023-07-08T14:47:11;32.20;62.10
57753;DHT22;43583;53.132;6.574;2023-07-08T14:49:37;32.20;59.80
57753;DHT22;43583;53.132;6.574;2023-07-08T14:52:02;32.20;59.50
57753;DHT22;43583;53.132;6.574;2023-07-08T14:54:28;32.30;60.10
57753;DHT22;43583;53.132;6.574;2023-07-08T14:56:55;32.30;60.20
57753;DHT22;43583;53.132;6.574;2023-07-08T14:59:24;32.30;61.20
57753;DHT22;43583;53.132;6.574;2023-07-08T15:01:52;32.30;61.30
57753;DHT22;43583;53.132;6.574;2023-07-08T15:04:19;32.40;60.90
57753;DHT22;43583;53.132;6.574;2023-07-08T15:06:45;32.40;59.30
57753;DHT22;43583;53.132;6.574;2023-07-08T15:09:12;32.30;59.40
57753;DHT22;43583;53.132;6.574;2023-07-08T15:11:40;32.20;60.20
57753;DHT22;43583;53.132;6.574;2023-07-08T15:14:16;32.10;59.60
57753;DHT22;43583;53.132;6.574;2023-07-08T15:16:42;32.10;61.10
57753;DHT22;43583;53.132;6.574;2023-07-08T15:19:11;32.10;60.40
57753;DHT22;43583;53.132;6.574;2023-07-08T15:21:38;32.10;60.40
57753;DHT22;43583;53.132;6.574;2023-07-08T15:24:06;32.00;60.60
57753;DHT22;43583;53.132;6.574;2023-07-08T15:26:32;31.90;59.30
57753;DHT22;43583;53.132;6.574;2023-07-08T15:28:57;31.90;58.90
57753;DHT22;43583;53.132;6.574;2023-07-08T15:31:24;31.90;58.10
57753;DHT22;43583;53.132;6.574;2023-07-08T15:33:54;31.90;58.30
57753;DHT22;43583;53.132;6.574;2023-07-08T15:36:19;31.90;58.30
57753;DHT22;43583;53.132;6.574;2023-07-08T15:38:45;31.90;58.90
57753;DHT22;43583;53.132;6.574;2023-07-08T15:41:25;31.90;60.70
57753;DHT22;43583;53.132;6.574;2023-07-08T15:43:55;31.80;60.10
57753;DHT22;43583;53.132;6.574;2023-07-08T15:46:21;31.70;61.00
57753;DHT22;43583;53.132;6.574;2023-07-08T15:48:47;31.60;60.20
57753;DHT22;43583;53.132;6.574;2023-07-08T15:51:16;31.60;60.80
57753;DHT22;43583;53.132;6.574;2023-07-08T15:53:42;31.60;61.30
57753;DHT22;43583;53.132;6.574;2023-07-08T15:56:19;31.60;60.70
57753;DHT22;43583;53.132;6.574;2023-07-08T15:58:45;31.70;60.50
57753;DHT22;43583;53.132;6.574;2023-07-08T16:01:21;31.70;60.60
57753;DHT22;43583;53.132;6.574;2023-07-08T16:03:47;31.60;59.20
57753;DHT22;43583;53.132;6.574;2023-07-08T16:06:13;31.50;59.70
57753;DHT22;43583;53.132;6.574;2023-07-08T16:08:39;31.50;59.60
57753;DHT22;43583;53.132;6.574;2023-07-08T16:11:13;31.40;60.00
57753;DHT22;43583;53.132;6.574;2023-07-08T16:13:39;31.40;60.10
57753;DHT22;43583;53.132;6.574;2023-07-08T16:16:05;31.40;63.60
57753;DHT22;43583;53.132;6.574;2023-07-08T16:18:32;31.40;61.10
57753;DHT22;43583;53.132;6.574;2023-07-08T16:20:58;31.40;60.80
57753;DHT22;43583;53.132;6.574;2023-07-08T16:23:23;31.40;61.10
57753;DHT22;43583;53.132;6.574;2023-07-08T16:25:51;31.40;60.60
57753;DHT22;43583;53.132;6.574;2023-07-08T16:28:19;31.30;61.00
57753;DHT22;43583;53.132;6.574;2023-07-08T16:30:47;31.30;62.30
57753;DHT22;43583;53.132;6.574;2023-07-08T16:33:14;31.20;62.50
57753;DHT22;43583;53.132;6.574;2023-07-08T16:35:40;31.10;61.40
57753;DHT22;43583;53.132;6.574;2023-07-08T16:38:07;31.10;61.40
57753;DHT22;43583;53.132;6.574;2023-07-08T16:40:33;31.00;61.40
57753;DHT22;43583;53.132;6.574;2023-07-08T16:42:59;31.00;62.40
57753;DHT22;43583;53.132;6.574;2023-07-08T16:45:25;31.00;63.00
57753;DHT22;43583;53.132;6.574;2023-07-08T16:47:52;31.00;63.20
57753;DHT22;43583;53.132;6.574;2023-07-08T16:50:20;31.00;62.20
57753;DHT22;43583;53.132;6.574;2023-07-08T16:52:46;30.90;62.30
57753;DHT22;43583;53.132;6.574;2023-07-08T16:55:14;30.90;62.30
57753;DHT22;43583;53.132;6.574;2023-07-08T16:57:40;30.90;60.80
57753;DHT22;43583;53.132;6.574;2023-07-08T17:00:08;30.90;61.30
57753;DHT22;43583;53.132;6.574;2023-07-08T17:02:35;30.90;62.00
57753;DHT22;43583;53.132;6.574;2023-07-08T17:05:01;30.90;61.40
57753;DHT22;43583;53.132;6.574;2023-07-08T17:07:30;30.90;62.10
57753;DHT22;43583;53.132;6.574;2023-07-08T17:09:56;30.90;63.40
57753;DHT22;43583;53.132;6.574;2023-07-08T17:12:21;30.80;64.80
57753;DHT22;43583;53.132;6.574;2023-07-08T17:14:47;30.80;65.00
57753;DHT22;43583;53.132;6.574;2023-07-08T17:17:13;30.70;65.00
57753;DHT22;43583;53.132;6.574;2023-07-08T17:19:40;30.60;65.30
57753;DHT22;43583;53.132;6.574;2023-07-08T17:22:08;30.40;65.60
57753;DHT22;43583;53.132;6.574;2023-07-08T17:24:34;30.30;65.60
57753;DHT22;43583;53.132;6.574;2023-07-08T17:27:00;30.10;65.20
57753;DHT22;43583;53.132;6.574;2023-07-08T17:29:25;29.90;65.60
57753;DHT22;43583;53.132;6.574;2023-07-08T17:31:53;29.80;66.20
57753;DHT22;43583;53.132;6.574;2023-07-08T17:34:22;29.60;66.70
57753;DHT22;43583;53.132;6.574;2023-07-08T17:36:49;29.50;66.50
57753;DHT22;43583;53.132;6.574;2023-07-08T17:39:15;29.40;67.40
57753;DHT22;43583;53.132;6.574;2023-07-08T17:41:40;29.20;68.20
57753;DHT22;43583;53.132;6.574;2023-07-08T17:44:06;29.20;69.60
57753;DHT22;43583;53.132;6.574;2023-07-08T17:46:32;29.10;69.40